Terminal Aerodrome Forecast
Issued by NWS Boston, MA

Home | Current Version | Previous Version | Text Only | Print | Product List | Glossary On
Versions: 1 2 3 4 5 6 7 8 9 10 11 12 13 14 15 16 17 18 19 20 21 22 23 24 25 26 27 28 29 30 31 32 33 34 35 36
000
FTUS41 KBOX 251132
TAFORH
TAF
KORH 251132Z 2512/2612 23015G22KT 6SM -RA BKN012 BKN020 OVC080
     FM251400 26014G25KT P6SM BKN020 OVC090
     FM251500 26018G31KT P6SM SCT025 BKN090
     FM251700 26020G31KT P6SM BKN050
     FM252100 27020G34KT P6SM SCT090
     FM260000 27013G25KT P6SM SCT250
     FM260500 27011KT P6SM FEW250=

USA.gov is the U.S. government's official web portal to all federal, state and local government web resources and services.